Time;durP1;ratioP1;P1;durP2;ratioP2;P2;SDS_P1;SDS_P2;PMS_P1;PMS_P2;Temp;Humidity;BMP_temperature;BMP_pressure;BME280_temperature;BME280_humidity;BME280_pressure;Samples;Min_cycle;Max_cycle;Signal;HPM_P1;HPM_P2
2022/09/18 00:00:54;;;;;;;7.80;2.00;;;11.70;99.90;;;;;;5072394;28;20589;-77
2022/09/18 00:03:20;;;;;;;7.67;2.27;;;11.70;99.90;;;;;;5072247;28;20194;-77
2022/09/18 00:05:45;;;;;;;6.07;1.97;;;11.70;99.90;;;;;;5073648;28;20177;-77
2022/09/18 00:08:11;;;;;;;6.80;1.73;;;11.70;99.90;;;;;;5074081;28;20270;-78
2022/09/18 00:10:45;;;;;;;4.47;1.60;;;11.70;99.90;;;;;;5073920;28;20210;-77
2022/09/18 00:13:11;;;;;;;9.07;1.80;;;11.70;99.90;;;;;;5072627;28;20195;-76
2022/09/18 00:15:37;;;;;;;6.70;1.50;;;11.70;99.90;;;;;;5073966;28;20171;-77
2022/09/18 00:18:03;;;;;;;4.47;1.57;;;11.70;99.90;;;;;;5072586;28;20179;-77
2022/09/18 00:20:29;;;;;;;6.03;2.40;;;11.70;99.90;;;;;;5073908;28;20171;-77
2022/09/18 00:22:55;;;;;;;4.13;2.00;;;11.70;99.90;;;;;;5073741;28;20698;-78
2022/09/18 00:25:20;;;;;;;7.07;2.73;;;11.70;99.90;;;;;;5073883;28;20175;-78
2022/09/18 00:27:46;;;;;;;7.07;2.60;;;11.70;99.90;;;;;;5074153;28;20167;-77
2022/09/18 00:30:12;;;;;;;5.10;1.77;;;11.70;99.90;;;;;;5074719;28;20296;-77
2022/09/18 00:32:38;;;;;;;7.47;2.67;;;11.70;99.90;;;;;;5072929;28;20171;-77
2022/09/18 00:35:03;;;;;;;12.10;4.53;;;11.70;99.90;;;;;;5073101;28;20197;-77
2022/09/18 00:37:29;;;;;;;6.97;3.57;;;11.70;99.90;;;;;;5072930;28;20170;-77
2022/09/18 00:39:54;;;;;;;7.20;3.20;;;11.70;99.90;;;;;;5073781;28;20163;-77
2022/09/18 00:42:20;;;;;;;9.87;2.70;;;11.70;99.90;;;;;;5071467;28;20214;-77
2022/09/18 00:44:47;;;;;;;7.17;2.30;;;11.70;99.90;;;;;;5072930;28;20679;-76
2022/09/18 00:47:15;;;;;;;6.30;1.80;;;11.70;99.90;;;;;;5071447;28;20177;-77
2022/09/18 00:50:06;;;;;;;7.30;2.10;;;11.70;99.90;;;;;;5072940;28;20171;-77
2022/09/18 00:52:46;;;;;;;9.90;2.50;;;11.70;99.90;;;;;;5072793;28;20720;-77
2022/09/18 00:55:13;;;;;;;7.20;1.83;;;11.70;99.90;;;;;;5072702;28;20195;-77
2022/09/18 00:57:44;;;;;;;7.83;1.90;;;11.60;99.90;;;;;;5072921;28;20229;-77
2022/09/18 01:00:13;;;;;;;5.87;1.83;;;11.60;99.90;;;;;;5073130;28;20166;-77
2022/09/18 01:02:41;;;;;;;7.27;2.10;;;11.60;99.90;;;;;;5073175;28;20175;-75
2022/09/18 01:05:08;;;;;;;8.00;2.33;;;11.60;99.90;;;;;;5072821;28;20289;-77
2022/09/18 01:07:59;;;;;;;14.13;3.37;;;11.60;99.90;;;;;;5073460;28;20185;-77
2022/09/18 01:10:38;;;;;;;5.93;2.00;;;11.70;99.90;;;;;;5073517;28;20156;-76
2022/09/18 01:13:18;;;;;;;8.63;2.03;;;11.70;99.90;;;;;;5071797;28;20159;-76
2022/09/18 01:15:59;;;;;;;6.67;2.17;;;11.70;99.90;;;;;;5072643;28;20201;-76
2022/09/18 01:18:37;;;;;;;6.03;1.90;;;11.70;99.90;;;;;;5072860;28;20162;-76
2022/09/18 01:21:22;;;;;;;10.53;2.63;;;11.70;99.90;;;;;;5071357;28;20281;-76
2022/09/18 01:24:21;;;;;;;7.70;2.20;;;11.70;99.90;;;;;;5072864;28;20198;-79
2022/09/18 01:26:57;;;;;;;5.87;1.50;;;11.70;99.90;;;;;;5072607;28;20644;-77
2022/09/18 01:29:47;;;;;;;4.80;1.43;;;11.70;99.90;;;;;;5073010;28;20558;-77
2022/09/18 01:32:21;;;;;;;4.63;1.53;;;11.70;99.90;;;;;;5071270;28;20187;-76
2022/09/18 01:34:57;;;;;;;8.53;1.73;;;11.70;99.90;;;;;;5071679;28;20587;-76
2022/09/18 01:37:38;;;;;;;7.30;2.07;;;11.60;99.90;;;;;;5071495;28;20263;-78
2022/09/18 01:40:15;;;;;;;9.07;1.57;;;11.60;99.90;;;;;;5072667;28;20536;-76
2022/09/18 01:42:44;;;;;;;4.37;1.70;;;11.60;99.90;;;;;;5072639;28;20746;-76
2022/09/18 01:45:15;;;;;;;4.67;1.53;;;11.60;99.90;;;;;;5071438;28;20214;-79
2022/09/18 01:47:51;;;;;;;10.20;2.10;;;11.60;99.90;;;;;;5072562;28;20164;-76
2022/09/18 01:50:17;;;;;;;10.50;2.53;;;11.60;99.90;;;;;;5072734;28;20167;-78
2022/09/18 01:53:14;;;;;;;5.57;2.10;;;11.60;99.90;;;;;;5071670;28;20209;-77
2022/09/18 01:55:44;;;;;;;6.90;2.40;;;11.60;99.90;;;;;;5072716;28;20159;-76
2022/09/18 01:58:19;;;;;;;8.97;1.60;;;11.60;99.90;;;;;;5071256;28;20182;-77
2022/09/18 02:00:52;;;;;;;8.20;2.40;;;11.60;99.90;;;;;;5074767;28;20198;-76
2022/09/18 02:03:28;;;;;;;3.37;1.60;;;11.60;99.90;;;;;;5075890;28;20186;-76
2022/09/18 02:05:56;;;;;;;5.17;1.13;;;11.60;99.90;;;;;;5074801;28;20570;-77
2022/09/18 02:08:40;;;;;;;2.33;1.27;;;11.60;99.90;;;;;;5075653;28;20178;-76
2022/09/18 02:11:09;;;;;;;4.40;1.20;;;11.60;99.90;;;;;;5075980;28;20163;-76
2022/09/18 02:14:07;;;;;;;9.43;1.50;;;11.60;99.90;;;;;;5075668;28;20568;-77
2022/09/18 02:16:43;;;;;;;5.43;1.23;;;11.60;99.90;;;;;;5074390;28;20170;-77
2022/09/18 02:19:24;;;;;;;6.90;1.47;;;11.60;99.90;;;;;;5075692;28;20155;-77
2022/09/18 02:21:52;;;;;;;2.57;1.63;;;11.60;99.90;;;;;;5063176;28;20669;-77
2022/09/18 02:24:21;;;;;;;3.50;1.20;;;11.50;99.90;;;;;;5055172;28;20223;-77
2022/09/18 02:26:51;;;;;;;3.07;1.57;;;11.60;99.90;;;;;;5055772;28;20200;-77
2022/09/18 02:29:20;;;;;;;3.70;1.30;;;11.60;99.90;;;;;;5055456;28;20254;-77
2022/09/18 02:31:45;;;;;;;3.83;1.20;;;11.60;99.90;;;;;;5066387;28;20210;-77
2022/09/18 02:34:12;;;;;;;3.30;1.17;;;11.60;99.90;;;;;;5059192;28;20217;-77
2022/09/18 02:37:04;;;;;;;2.77;1.00;;;11.60;99.90;;;;;;5054823;28;20179;-76
2022/09/18 02:40:07;;;;;;;5.17;1.33;;;11.60;99.90;;;;;;5054069;28;20270;-76
2022/09/18 02:43:07;;;;;;;4.93;1.30;;;11.50;99.90;;;;;;5073093;28;20225;-77
2022/09/18 02:45:57;;;;;;;5.27;2.20;;;11.60;99.90;;;;;;5073241;28;20221;-76
2022/09/18 02:48:25;;;;;;;4.77;1.60;;;11.50;99.90;;;;;;5075314;28;20743;-77
2022/09/18 02:51:06;;;;;;;6.70;1.60;;;11.60;99.90;;;;;;5072929;28;20171;-77
2022/09/18 02:53:52;;;;;;;8.60;2.23;;;11.60;99.90;;;;;;5073863;28;20201;-76
2022/09/18 02:56:48;;;;;;;4.63;1.60;;;11.50;99.90;;;;;;5073809;28;20209;-76
2022/09/18 02:59:34;;;;;;;10.13;2.60;;;11.50;99.90;;;;;;5044899;28;20183;-77
2022/09/18 03:01:59;;;;;;;7.33;2.07;;;11.50;99.90;;;;;;5073883;28;20195;-76
2022/09/18 03:04:26;;;;;;;4.97;1.90;;;11.50;99.90;;;;;;5075125;28;20270;-77
2022/09/18 03:06:52;;;;;;;2.90;1.90;;;11.50;99.90;;;;;;5073730;28;20166;-77
2022/09/18 03:09:18;;;;;;;4.53;1.80;;;11.50;99.90;;;;;;5074981;28;20178;-77
2022/09/18 03:11:44;;;;;;;4.90;1.97;;;11.50;99.90;;;;;;5072489;28;20175;-76
2022/09/18 03:14:11;;;;;;;5.33;2.63;;;11.50;99.90;;;;;;5075218;28;20248;-76
2022/09/18 03:16:36;;;;;;;5.93;1.90;;;11.50;99.90;;;;;;5075051;28;20171;-76
2022/09/18 03:19:02;;;;;;;5.20;2.23;;;11.50;99.90;;;;;;5074753;28;20667;-77
2022/09/18 03:21:28;;;;;;;7.40;1.97;;;11.50;99.90;;;;;;5072170;28;20199;-77
2022/09/18 03:23:54;;;;;;;7.67;2.60;;;11.50;99.90;;;;;;5074618;28;20699;-76
2022/09/18 03:26:20;;;;;;;4.50;2.20;;;11.50;99.90;;;;;;5074377;28;20261;-77
2022/09/18 03:28:46;;;;;;;6.83;2.80;;;11.50;99.90;;;;;;5073066;28;20261;-77
2022/09/18 03:31:12;;;;;;;9.33;2.47;;;11.50;99.90;;;;;;5068577;28;20178;-77
2022/09/18 03:33:37;;;;;;;6.97;2.77;;;11.40;99.90;;;;;;5071331;28;20198;-76
2022/09/18 03:36:07;;;;;;;4.90;2.43;;;11.50;99.90;;;;;;5071958;28;20191;-77
2022/09/18 03:38:36;;;;;;;8.00;2.63;;;11.40;99.90;;;;;;5074302;28;20554;-77
2022/09/18 03:41:02;;;;;;;5.03;2.27;;;11.50;99.90;;;;;;5072384;28;20565;-76
2022/09/18 03:43:27;;;;;;;10.27;2.03;;;11.50;99.90;;;;;;5088932;22;20206;-80
2022/09/18 03:45:53;;;;;;;5.17;2.10;;;11.40;99.90;;;;;;5096167;28;20159;-80
2022/09/18 03:48:19;;;;;;;5.60;2.33;;;11.50;99.90;;;;;;5095881;28;20174;-79
2022/09/18 03:50:47;;;;;;;5.30;1.97;;;11.50;99.90;;;;;;5091173;28;20175;-79
2022/09/18 03:53:12;;;;;;;5.20;2.70;;;11.40;99.90;;;;;;5075544;28;20183;-79
2022/09/18 03:55:38;;;;;;;4.87;1.90;;;11.40;99.90;;;;;;5075035;28;20179;-79
2022/09/18 03:58:04;;;;;;;4.87;2.17;;;11.40;99.90;;;;;;5077169;28;20195;-79
2022/09/18 04:00:29;;;;;;;8.37;1.80;;;11.40;99.90;;;;;;5078776;28;20247;-80
2022/09/18 04:02:55;;;;;;;3.47;1.70;;;11.40;99.90;;;;;;5095810;28;20178;-79
2022/09/18 04:05:20;;;;;;;2.47;1.67;;;11.40;99.90;;;;;;5097575;28;20194;-79
2022/09/18 04:07:46;;;;;;;3.67;1.97;;;11.40;99.90;;;;;;5095917;28;20204;-79
2022/09/18 04:10:11;;;;;;;8.00;3.10;;;11.40;99.90;;;;;;5095151;28;20209;-80
2022/09/18 04:12:37;;;;;;;7.63;2.50;;;11.40;99.90;;;;;;5096513;28;20315;-79
2022/09/18 04:15:03;;;;;;;7.60;2.70;;;11.40;99.90;;;;;;5096865;28;20198;-79
2022/09/18 04:17:29;;;;;;;6.57;3.13;;;11.40;99.90;;;;;;5097185;28;20288;-79
2022/09/18 04:19:54;;;;;;;6.37;2.73;;;11.40;99.90;;;;;;5094494;28;20175;-79
2022/09/18 04:22:21;;;;;;;5.27;2.93;;;11.40;99.90;;;;;;5096555;28;20712;-79
2022/09/18 04:24:47;;;;;;;4.80;2.30;;;11.40;99.90;;;;;;5097251;28;20208;-80
2022/09/18 04:27:13;;;;;;;5.33;2.27;;;11.30;99.90;;;;;;5097287;28;20178;-80
2022/09/18 04:29:39;;;;;;;7.53;3.03;;;11.30;99.90;;;;;;5095201;28;20185;-79
2022/09/18 04:32:05;;;;;;;7.90;2.40;;;11.40;99.90;;;;;;5094645;28;20182;-80
2022/09/18 04:34:30;;;;;;;10.20;2.30;;;11.40;99.90;;;;;;5097000;28;20194;-79
2022/09/18 04:36:55;;;;;;;6.00;2.20;;;11.30;99.90;;;;;;5095392;28;20178;-79
2022/09/18 04:39:21;;;;;;;4.80;1.93;;;11.40;99.90;;;;;;5097181;28;20647;-79
2022/09/18 04:41:50;;;;;;;5.60;1.80;;;11.40;99.90;;;;;;5094253;28;20206;-79
2022/09/18 04:44:16;;;;;;;4.37;1.70;;;11.40;99.90;;;;;;5094715;28;20212;-79
2022/09/18 04:46:41;;;;;;;3.13;1.40;;;11.40;99.90;;;;;;5096598;28;20174;-80
2022/09/18 04:49:07;;;;;;;3.63;1.40;;;11.40;99.90;;;;;;5096336;28;20182;-79
2022/09/18 04:51:33;;;;;;;3.07;1.77;;;11.40;99.90;;;;;;5094070;28;20220;-79
2022/09/18 04:53:58;;;;;;;2.83;1.40;;;11.40;99.90;;;;;;5096352;28;20201;-79
2022/09/18 04:56:24;;;;;;;3.57;1.70;;;11.40;99.90;;;;;;5095268;28;20178;-79
2022/09/18 04:58:50;;;;;;;3.97;1.70;;;11.40;99.90;;;;;;5097681;28;20573;-79
2022/09/18 05:01:16;;;;;;;6.17;2.30;;;11.40;99.90;;;;;;5094737;28;20194;-79
2022/09/18 05:03:41;;;;;;;6.77;2.50;;;11.40;99.90;;;;;;5094834;28;20198;-79
2022/09/18 05:06:07;;;;;;;4.23;2.63;;;11.40;99.90;;;;;;5095230;28;20171;-79
2022/09/18 05:08:33;;;;;;;6.60;2.70;;;11.40;99.90;;;;;;5096363;28;20547;-79
2022/09/18 05:10:59;;;;;;;6.57;2.90;;;11.40;99.90;;;;;;5095897;28;20166;-79
2022/09/18 05:13:25;;;;;;;5.67;3.13;;;11.50;99.90;;;;;;5097133;28;20177;-79
2022/09/18 05:15:54;;;;;;;5.20;2.90;;;11.50;99.90;;;;;;5095756;28;20178;-79
2022/09/18 05:18:20;;;;;;;5.00;3.07;;;11.50;99.90;;;;;;5094389;28;20585;-79
2022/09/18 05:20:46;;;;;;;6.23;3.13;;;11.50;99.90;;;;;;5095424;28;20198;-79
2022/09/18 05:23:12;;;;;;;7.27;3.63;;;11.50;99.90;;;;;;5097167;28;20189;-79
2022/09/18 05:25:37;;;;;;;8.90;3.37;;;11.50;99.90;;;;;;5096976;28;20245;-79
2022/09/18 05:28:03;;;;;;;7.03;3.30;;;11.50;99.90;;;;;;5096752;28;20166;-79
2022/09/18 05:30:30;;;;;;;7.43;3.23;;;11.50;99.90;;;;;;5093080;28;20632;-79
2022/09/18 05:32:57;;;;;;;7.13;3.10;;;11.40;99.90;;;;;;5094301;28;20253;-78
2022/09/18 05:35:24;;;;;;;9.03;3.43;;;11.50;99.90;;;;;;5098092;28;20186;-78
2022/09/18 05:37:51;;;;;;;10.17;3.90;;;11.50;99.90;;;;;;5097918;28;20548;-78
2022/09/18 05:40:18;;;;;;;8.43;3.83;;;11.50;99.90;;;;;;5097759;28;20165;-79
2022/09/18 05:42:48;;;;;;;8.60;4.33;;;11.50;99.90;;;;;;5097128;28;20209;-79
2022/09/18 05:45:15;;;;;;;9.03;3.83;;;11.60;99.90;;;;;;5096900;28;20210;-78
2022/09/18 05:47:41;;;;;;;6.40;3.83;;;11.50;99.90;;;;;;5095779;28;20166;-77
2022/09/18 05:50:08;;;;;;;9.00;3.97;;;11.50;99.90;;;;;;5096373;28;20185;-78
2022/09/18 05:52:33;;;;;;;5.03;3.40;;;11.50;99.90;;;;;;5097599;28;20186;-78
2022/09/18 05:54:59;;;;;;;7.77;3.20;;;11.50;99.90;;;;;;5097704;28;20206;-78
2022/09/18 05:57:24;;;;;;;4.77;2.97;;;11.50;99.90;;;;;;5097951;28;20251;-78
2022/09/18 05:59:50;;;;;;;5.17;2.30;;;11.50;99.90;;;;;;5098791;28;20698;-78
2022/09/18 06:02:15;;;;;;;8.80;2.40;;;11.50;99.90;;;;;;5097260;28;20687;-78
2022/09/18 06:04:41;;;;;;;8.90;2.57;;;11.50;99.90;;;;;;5098696;28;20186;-78
2022/09/18 06:07:07;;;;;;;7.90;2.30;;;11.50;99.90;;;;;;5097881;28;20195;-79
2022/09/18 06:09:32;;;;;;;5.27;2.57;;;11.50;99.90;;;;;;5097924;28;20170;-78
2022/09/18 06:11:58;;;;;;;9.23;2.60;;;11.50;99.90;;;;;;5095760;28;20170;-78
2022/09/18 06:14:24;;;;;;;6.60;1.83;;;11.50;99.90;;;;;;5096443;28;20684;-79
2022/09/18 06:16:49;;;;;;;5.20;1.90;;;11.50;99.90;;;;;;5097922;28;20225;-79
2022/09/18 06:19:15;;;;;;;4.33;1.70;;;11.50;99.90;;;;;;5097946;28;20170;-79
2022/09/18 06:21:41;;;;;;;3.20;1.40;;;11.50;99.90;;;;;;5097296;28;20198;-79
2022/09/18 06:24:08;;;;;;;5.90;1.80;;;11.50;99.90;;;;;;5098067;28;20191;-79
2022/09/18 06:26:34;;;;;;;5.60;1.87;;;11.60;99.90;;;;;;5098602;28;20242;-79
2022/09/18 06:28:59;;;;;;;8.10;1.93;;;11.60;99.90;;;;;;5097511;28;20178;-79
2022/09/18 06:31:25;;;;;;;4.37;2.17;;;11.60;99.90;;;;;;5097409;28;20180;-79
2022/09/18 06:33:50;;;;;;;5.40;1.93;;;11.60;99.90;;;;;;5098017;28;20200;-79
2022/09/18 06:36:16;;;;;;;6.63;2.07;;;11.60;99.90;;;;;;5097829;28;20163;-79
2022/09/18 06:38:42;;;;;;;8.17;1.87;;;11.60;99.90;;;;;;5096448;28;20185;-79
2022/09/18 06:41:08;;;;;;;5.87;1.93;;;11.60;99.90;;;;;;5093393;28;20213;-78
2022/09/18 06:43:34;;;;;;;5.23;2.13;;;11.60;99.90;;;;;;5095954;28;20698;-79
2022/09/18 06:45:59;;;;;;;5.50;2.50;;;11.60;99.90;;;;;;5095545;28;20178;-79
2022/09/18 06:48:25;;;;;;;6.10;1.87;;;11.60;99.90;;;;;;5095309;28;20174;-79
2022/09/18 06:50:57;;;;;;;7.30;2.57;;;11.60;99.90;;;;;;5096221;28;20174;-78
2022/09/18 06:53:23;;;;;;;6.47;2.47;;;11.60;99.90;;;;;;5094615;28;20182;-79
2022/09/18 06:55:49;;;;;;;5.77;2.27;;;11.60;99.90;;;;;;5097686;28;20202;-79
2022/09/18 06:58:16;;;;;;;3.73;1.50;;;11.70;99.90;;;;;;5097562;28;20230;-79
2022/09/18 07:00:43;;;;;;;4.77;1.43;;;11.60;99.90;;;;;;5096710;28;20250;-80
2022/09/18 07:03:08;;;;;;;2.37;1.53;;;11.60;99.90;;;;;;5100706;28;20620;-79
2022/09/18 07:05:36;;;;;;;5.20;1.30;;;11.60;99.90;;;;;;5098309;28;20175;-79
2022/09/18 07:08:02;;;;;;;2.90;1.40;;;11.60;99.90;;;;;;5099196;28;20257;-79
2022/09/18 07:10:27;;;;;;;1.63;1.20;;;11.60;99.90;;;;;;5102091;28;20201;-80
2022/09/18 07:12:57;;;;;;;2.50;1.50;;;11.60;99.90;;;;;;5100092;28;20238;-79
2022/09/18 07:15:24;;;;;;;5.10;1.87;;;11.60;99.90;;;;;;5099434;28;20194;-79
2022/09/18 07:17:51;;;;;;;5.17;1.87;;;11.70;99.90;;;;;;5099651;28;20178;-80
2022/09/18 07:20:18;;;;;;;7.67;3.80;;;11.60;99.90;;;;;;5098521;28;20162;-80
2022/09/18 07:22:51;;;;;;;7.47;4.40;;;11.70;99.90;;;;;;5096777;28;20202;-79
2022/09/18 07:25:17;;;;;;;9.53;4.20;;;11.70;99.90;;;;;;5098093;28;20208;-79
2022/09/18 07:27:42;;;;;;;10.80;4.07;;;11.80;99.90;;;;;;5100058;28;20699;-79
2022/09/18 07:30:08;;;;;;;5.30;3.13;;;11.80;99.90;;;;;;5096086;28;20243;-81
2022/09/18 07:32:35;;;;;;;5.97;2.70;;;11.80;99.90;;;;;;5095529;28;20186;-80
2022/09/18 07:35:00;;;;;;;4.83;2.00;;;11.90;99.90;;;;;;5097372;28;20701;-79
2022/09/18 07:37:26;;;;;;;2.53;1.50;;;11.90;99.90;;;;;;5096395;28;20171;-80
2022/09/18 07:39:52;;;;;;;5.67;1.40;;;11.90;99.90;;;;;;5095415;28;20216;-80
2022/09/18 07:42:18;;;;;;;2.83;1.50;;;12.00;99.90;;;;;;5094211;28;20268;-80
2022/09/18 07:44:43;;;;;;;7.40;1.50;;;12.00;99.90;;;;;;5095002;28;20313;-80
2022/09/18 07:47:11;;;;;;;3.87;1.27;;;12.10;99.90;;;;;;5096090;28;20640;-80
2022/09/18 07:49:37;;;;;;;2.97;1.60;;;12.10;99.90;;;;;;5094816;28;20190;-80
2022/09/18 07:52:03;;;;;;;4.07;1.50;;;12.20;99.90;;;;;;5098345;28;20174;-81
2022/09/18 07:54:30;;;;;;;4.17;1.70;;;12.20;99.90;;;;;;5103862;28;20281;-80
2022/09/18 07:56:56;;;;;;;2.67;1.37;;;12.20;99.90;;;;;;5108907;28;20217;-80
2022/09/18 07:59:21;;;;;;;4.63;1.60;;;12.20;99.90;;;;;;5110376;28;20190;-80
2022/09/18 08:01:47;;;;;;;3.23;1.17;;;12.10;99.90;;;;;;5106452;28;20202;-81
2022/09/18 08:04:13;;;;;;;4.13;1.13;;;12.20;99.90;;;;;;5100090;28;20615;-80
2022/09/18 08:06:38;;;;;;;4.00;1.20;;;12.20;99.90;;;;;;5105594;28;20174;-80
2022/09/18 08:09:04;;;;;;;3.90;1.30;;;12.20;99.90;;;;;;5100999;28;20181;-80
2022/09/18 08:11:30;;;;;;;3.93;1.10;;;12.20;99.90;;;;;;5096138;28;20218;-80
2022/09/18 08:13:55;;;;;;;5.00;1.60;;;12.30;99.90;;;;;;5097026;28;20198;-79
2022/09/18 08:16:21;;;;;;;8.17;1.80;;;12.20;99.90;;;;;;5095527;28;20182;-80
2022/09/18 08:18:47;;;;;;;5.23;1.70;;;12.30;99.90;;;;;;5095559;28;20272;-78
2022/09/18 08:21:12;;;;;;;6.17;1.30;;;12.30;99.90;;;;;;5096319;28;20193;-79
2022/09/18 08:23:38;;;;;;;6.77;1.63;;;12.40;99.90;;;;;;5095370;28;20198;-79
2022/09/18 08:26:04;;;;;;;2.80;1.40;;;12.30;99.90;;;;;;5097468;28;20209;-80
2022/09/18 08:28:30;;;;;;;3.87;1.10;;;12.30;99.90;;;;;;5100974;28;20174;-80
2022/09/18 08:30:56;;;;;;;3.87;1.33;;;12.40;99.90;;;;;;5094009;28;20182;-79
2022/09/18 08:33:22;;;;;;;6.10;1.60;;;12.40;99.90;;;;;;5094365;28;20174;-78
2022/09/18 08:35:47;;;;;;;5.43;0.90;;;12.40;99.90;;;;;;5094999;28;20174;-78
2022/09/18 08:38:13;;;;;;;2.67;1.70;;;12.40;99.90;;;;;;5093555;28;20177;-79
2022/09/18 08:40:53;;;;;;;3.77;1.20;;;12.50;99.90;;;;;;5096931;28;20182;-77
2022/09/18 08:43:24;;;;;;;4.30;1.40;;;12.50;99.90;;;;;;5098408;28;20168;-78
2022/09/18 08:46:01;;;;;;;4.97;1.40;;;12.50;99.90;;;;;;5090625;28;20187;-80
2022/09/18 08:48:32;;;;;;;3.37;1.23;;;12.60;99.90;;;;;;5087838;28;20170;-80
2022/09/18 08:51:21;;;;;;;5.03;1.43;;;12.50;99.90;;;;;;5082090;28;20225;-80
2022/09/18 08:53:53;;;;;;;3.17;1.40;;;12.60;99.90;;;;;;5082502;28;20202;-79
2022/09/18 08:56:21;;;;;;;6.33;1.27;;;12.60;99.90;;;;;;5090445;28;20194;-80
2022/09/18 08:58:59;;;;;;;1.57;1.03;;;12.60;99.90;;;;;;5082912;28;20667;-79
2022/09/18 09:02:01;;;;;;;5.37;1.40;;;12.60;99.90;;;;;;5089767;28;20199;-80
2022/09/18 09:04:27;;;;;;;2.87;1.23;;;12.60;99.90;;;;;;5088696;28;20216;-79
2022/09/18 09:07:30;;;;;;;3.40;1.30;;;12.70;99.90;;;;;;5081470;28;20258;-80
2022/09/18 09:10:14;;;;;;;3.03;1.40;;;12.70;99.90;;;;;;5071054;28;20280;-80
2022/09/18 09:12:42;;;;;;;4.53;1.60;;;12.70;99.90;;;;;;5092634;28;20208;-79
2022/09/18 09:15:25;;;;;;;5.37;1.70;;;12.80;99.90;;;;;;5089650;28;20198;-80
2022/09/18 09:18:17;;;;;;;4.20;1.53;;;12.80;99.90;;;;;;5097022;28;20585;-80
2022/09/18 09:20:46;;;;;;;7.73;1.80;;;12.90;99.90;;;;;;5089416;28;20183;-78
2022/09/18 09:23:46;;;;;;;4.80;1.60;;;13.00;99.90;;;;;;5088160;28;20179;-81
2022/09/18 09:26:16;;;;;;;4.07;1.70;;;13.10;99.90;;;;;;5072992;28;20182;-80
2022/09/18 09:29:12;;;;;;;6.77;1.83;;;13.20;99.90;;;;;;5092907;28;20290;-80
2022/09/18 09:31:45;;;;;;;6.10;1.50;;;13.20;99.90;;;;;;5086923;28;20171;-80
2022/09/18 09:34:19;;;;;;;7.17;2.10;;;13.20;99.90;;;;;;5095145;28;20202;-79
2022/09/18 09:36:49;;;;;;;5.03;1.67;;;13.20;99.90;;;;;;5086951;28;20239;-78
2022/09/18 09:39:25;;;;;;;3.03;2.23;;;13.20;99.90;;;;;;5086503;28;20549;-79
2022/09/18 09:41:57;;;;;;;3.60;2.27;;;13.20;99.90;;;;;;5091216;28;20567;-80
2022/09/18 09:44:48;;;;;;;5.07;2.67;;;13.20;99.90;;;;;;5091653;28;20580;-80
2022/09/18 09:47:37;;;;;;;5.33;2.23;;;13.30;99.90;;;;;;5098928;28;20209;-80
2022/09/18 09:50:15;;;;;;;3.27;2.13;;;13.30;99.90;;;;;;5087165;28;20221;-80
2022/09/18 09:52:45;;;;;;;4.20;2.03;;;13.40;99.90;;;;;;5085978;28;20521;-80
2022/09/18 09:55:17;;;;;;;5.03;2.37;;;13.10;99.90;;;;;;5084603;28;20210;-80
2022/09/18 09:58:02;;;;;;;2.80;1.90;;;13.30;99.90;;;;;;5084107;28;20185;-79
2022/09/18 10:00:32;;;;;;;2.43;1.53;;;13.40;99.90;;;;;;5098271;22;20190;-93
2022/09/18 10:03:06;;;;;;;4.30;1.40;;;13.40;99.90;;;;;;5061767;28;20186;-93
2022/09/18 10:05:41;;;;;;;3.20;1.33;;;13.50;99.90;;;;;;5079540;28;20232;-93
2022/09/18 10:08:34;;;;;;;3.57;1.37;;;13.60;99.90;;;;;;5078169;28;20209;-93
2022/09/18 10:11:03;;;;;;;4.37;1.60;;;13.60;99.90;;;;;;5060473;28;20174;-93
2022/09/18 10:13:39;;;;;;;2.37;1.53;;;13.70;99.90;;;;;;5077993;22;20230;-81
2022/09/18 10:16:39;;;;;;;2.77;1.40;;;13.70;99.90;;;;;;5025050;28;20176;-80
2022/09/18 10:19:04;;;;;;;1.73;1.40;;;13.70;99.90;;;;;;5063470;28;20161;-78
2022/09/18 10:21:37;;;;;;;1.80;1.20;;;13.80;99.90;;;;;;5057468;28;20208;-79
2022/09/18 10:24:43;;;;;;;2.67;1.37;;;13.90;99.90;;;;;;5060224;28;20176;-79
2022/09/18 10:27:11;;;;;;;3.33;1.20;;;13.90;99.90;;;;;;5054333;28;20653;-78
2022/09/18 10:29:37;;;;;;;4.10;1.20;;;13.90;99.90;;;;;;5054544;28;20180;-79
2022/09/18 10:32:03;;;;;;;2.57;1.07;;;13.90;99.90;;;;;;5034403;28;20673;-78
2022/09/18 10:34:47;;;;;;;1.60;1.13;;;13.80;99.90;;;;;;5054769;28;20172;-78
2022/09/18 10:37:15;;;;;;;10.13;1.40;;;13.80;99.90;;;;;;5052685;28;20179;-79
2022/09/18 10:39:52;;;;;;;2.97;1.23;;;13.70;99.90;;;;;;5034102;28;20176;-79
2022/09/18 10:42:21;;;;;;;4.83;1.93;;;13.60;99.90;;;;;;5054792;28;20684;-77
2022/09/18 10:44:57;;;;;;;5.40;1.93;;;13.50;99.90;;;;;;5051812;28;20203;-78
2022/09/18 10:47:25;;;;;;;5.10;1.60;;;13.40;99.90;;;;;;5052537;28;20211;-77
2022/09/18 10:49:57;;;;;;;6.37;1.80;;;13.30;99.90;;;;;;5034402;28;20182;-78
2022/09/18 10:52:48;;;;;;;6.67;2.80;;;13.20;99.90;;;;;;5036273;28;20234;-78
2022/09/18 10:55:20;;;;;;;9.73;2.70;;;13.10;99.90;;;;;;5053822;28;20172;-77
2022/09/18 10:57:48;;;;;;;5.73;2.33;;;13.00;99.90;;;;;;5036361;28;20608;-78
2022/09/18 11:00:20;;;;;;;2.37;1.70;;;12.90;99.90;;;;;;5035816;28;20586;-76
2022/09/18 11:02:57;;;;;;;2.37;1.80;;;12.80;99.90;;;;;;5053697;28;20196;-77
2022/09/18 11:05:37;;;;;;;3.17;1.53;;;12.70;99.90;;;;;;5053647;28;20570;-78
2022/09/18 11:08:13;;;;;;;3.27;2.10;;;12.70;99.90;;;;;;5036336;28;20302;-78
2022/09/18 11:10:45;;;;;;;10.00;5.80;;;12.60;99.90;;;;;;5066511;28;20207;-77
2022/09/18 11:13:23;;;;;;;13.83;6.40;;;12.60;99.90;;;;;;5051458;28;20164;-77
2022/09/18 11:15:58;;;;;;;7.37;4.27;;;12.60;99.90;;;;;;5052046;28;20690;-77
2022/09/18 11:18:24;;;;;;;7.23;3.63;;;12.60;99.90;;;;;;5053628;28;20649;-77
2022/09/18 11:20:51;;;;;;;6.00;3.00;;;12.60;99.90;;;;;;5035643;28;20278;-78
2022/09/18 11:23:29;;;;;;;2.83;1.70;;;12.60;99.90;;;;;;5053481;28;20184;-77
2022/09/18 11:26:15;;;;;;;2.77;1.23;;;12.50;99.90;;;;;;5053408;28;20649;-77
2022/09/18 11:28:41;;;;;;;0.97;0.83;;;12.40;99.90;;;;;;5053312;28;20186;-77
2022/09/18 11:31:17;;;;;;;1.97;0.90;;;12.40;99.90;;;;;;5052896;28;20199;-77
2022/09/18 11:33:46;;;;;;;1.40;0.93;;;12.40;99.90;;;;;;5053372;28;20179;-76
2022/09/18 11:36:14;;;;;;;3.60;0.90;;;12.40;99.90;;;;;;5053236;28;20548;-77
2022/09/18 11:38:45;;;;;;;3.17;0.90;;;12.40;99.90;;;;;;5035373;28;20262;-77
2022/09/18 11:41:12;;;;;;;2.80;0.90;;;12.40;99.90;;;;;;5052152;28;20703;-77
2022/09/18 11:43:40;;;;;;;3.07;0.87;;;12.40;99.90;;;;;;5052307;28;20711;-78
2022/09/18 11:46:31;;;;;;;2.67;1.10;;;12.40;99.90;;;;;;5052594;28;20176;-77
2022/09/18 11:49:11;;;;;;;2.87;1.30;;;12.50;99.90;;;;;;5052235;28;20184;-77
2022/09/18 11:52:00;;;;;;;3.80;1.10;;;12.50;99.90;;;;;;5035201;28;20200;-77
2022/09/18 11:54:41;;;;;;;1.70;1.00;;;12.50;99.90;;;;;;5033710;28;20183;-77
2022/09/18 11:57:16;;;;;;;2.70;1.20;;;12.60;99.90;;;;;;5052670;28;20183;-77
2022/09/18 11:59:48;;;;;;;2.80;1.20;;;12.60;99.90;;;;;;5053164;28;20175;-78
2022/09/18 12:02:36;;;;;;;3.37;1.10;;;12.60;99.90;;;;;;5051957;28;20195;-77
2022/09/18 12:05:17;;;;;;;4.07;0.90;;;12.60;99.90;;;;;;5052844;28;20221;-78
2022/09/18 12:08:13;;;;;;;2.40;0.70;;;12.50;99.90;;;;;;5051696;28;20221;-77
2022/09/18 12:10:57;;;;;;;3.87;2.77;;;12.50;99.90;;;;;;5052541;28;20202;-78
2022/09/18 12:13:39;;;;;;;5.40;2.57;;;12.60;99.90;;;;;;5033999;28;20176;-77
2022/09/18 12:16:28;;;;;;;6.53;2.40;;;12.50;99.90;;;;;;5051857;28;20172;-77
2022/09/18 12:19:07;;;;;;;5.80;2.70;;;12.60;99.90;;;;;;5034078;28;20206;-79
2022/09/18 12:21:58;;;;;;;7.43;3.20;;;12.60;99.90;;;;;;5034936;28;20245;-79
2022/09/18 12:24:24;;;;;;;5.13;2.27;;;12.60;99.90;;;;;;5066175;28;20187;-79
2022/09/18 12:27:04;;;;;;;5.20;2.03;;;12.70;99.90;;;;;;5032195;28;20179;-79
2022/09/18 12:29:42;;;;;;;3.33;1.80;;;12.60;99.90;;;;;;5034412;28;20225;-78
2022/09/18 12:32:14;;;;;;;7.97;2.13;;;12.60;99.90;;;;;;5034514;28;20207;-78
2022/09/18 12:34:59;;;;;;;4.97;1.50;;;12.60;99.90;;;;;;5034333;28;20190;-78
2022/09/18 12:37:52;;;;;;;2.50;1.30;;;12.50;99.90;;;;;;5052247;28;20203;-78
2022/09/18 12:40:41;;;;;;;2.43;1.10;;;12.60;99.90;;;;;;5051998;28;20184;-78
2022/09/18 12:43:33;;;;;;;6.47;2.13;;;12.50;99.90;;;;;;5049638;28;20247;-78
2022/09/18 12:46:23;;;;;;;3.63;1.63;;;12.60;99.90;;;;;;5051112;28;20656;-78
2022/09/18 12:49:22;;;;;;;1.47;0.97;;;12.50;99.90;;;;;;5051962;28;20646;-77
2022/09/18 12:52:12;;;;;;;4.73;1.07;;;12.30;99.90;;;;;;5014482;28;20207;-79
2022/09/18 12:54:57;;;;;;;2.70;1.40;;;12.40;99.90;;;;;;5052625;28;20870;-79
2022/09/18 12:57:42;;;;;;;5.53;2.10;;;12.30;99.90;;;;;;5050051;28;20171;-78
2022/09/18 13:00:15;;;;;;;6.87;3.40;;;12.30;99.90;;;;;;5033569;28;20175;-77
2022/09/18 13:02:50;;;;;;;10.23;3.93;;;12.30;99.90;;;;;;5052034;28;20199;-77
2022/09/18 13:05:44;;;;;;;8.10;3.70;;;12.40;99.90;;;;;;5033751;28;20274;-76
2022/09/18 13:08:43;;;;;;;9.67;3.20;;;12.40;99.90;;;;;;5032523;28;20168;-77
2022/09/18 13:11:26;;;;;;;8.10;3.40;;;12.40;99.90;;;;;;5050178;28;20257;-77